Time;durP1;ratioP1;P1;durP2;ratioP2;P2;SDS_P1;SDS_P2;PMS_P1;PMS_P2;Temp;Humidity;BMP_temperature;BMP_pressure;BME280_temperature;BME280_humidity;BME280_pressure;Samples;Min_cycle;Max_cycle;Signal;HPM_P1;HPM_P2
2023/06/11 00:00:43;;;;;;;4.95;2.10;;;16.40;99.90;;;;;;5053788;28;20033;-73
2023/06/11 00:03:09;;;;;;;5.65;2.33;;;16.20;99.90;;;;;;5057157;28;20033;-73
2023/06/11 00:05:35;;;;;;;5.55;2.38;;;16.00;99.90;;;;;;5071879;28;20077;-73
2023/06/11 00:08:01;;;;;;;4.07;2.22;;;16.30;99.90;;;;;;5060108;28;20090;-73
2023/06/11 00:10:27;;;;;;;4.32;2.42;;;16.20;99.90;;;;;;5053149;28;20032;-73
2023/06/11 00:12:53;;;;;;;4.47;2.35;;;16.30;99.90;;;;;;5050123;28;20021;-73
2023/06/11 00:15:19;;;;;;;5.80;2.67;;;16.40;99.90;;;;;;5049174;28;20493;-73
2023/06/11 00:17:45;;;;;;;5.15;2.47;;;16.20;99.90;;;;;;5049149;28;20033;-73
2023/06/11 00:20:11;;;;;;;4.45;2.45;;;16.20;99.90;;;;;;5048923;28;20431;-73
2023/06/11 00:22:38;;;;;;;4.68;2.60;;;16.20;99.90;;;;;;5056359;28;20123;-73
2023/06/11 00:25:06;;;;;;;5.85;2.60;;;16.10;99.90;;;;;;5052448;28;20078;-73
2023/06/11 00:27:34;;;;;;;6.05;2.60;;;16.30;99.90;;;;;;5055457;28;20017;-73
2023/06/11 00:30:03;;;;;;;5.03;2.72;;;16.50;99.90;;;;;;5048757;28;20029;-73
2023/06/11 00:32:29;;;;;;;6.90;2.90;;;16.20;99.90;;;;;;5053439;28;20017;-73
2023/06/11 00:34:55;;;;;;;5.30;2.53;;;15.80;99.90;;;;;;5049936;28;20074;-73
2023/06/11 00:37:22;;;;;;;3.97;2.70;;;15.70;99.90;;;;;;5049776;28;20442;-72
2023/06/11 00:39:47;;;;;;;5.43;2.35;;;15.50;99.90;;;;;;5051120;28;20537;-73
2023/06/11 00:42:13;;;;;;;4.88;2.60;;;15.60;99.90;;;;;;5047979;28;20029;-72
2023/06/11 00:44:39;;;;;;;5.13;2.78;;;15.60;99.90;;;;;;5049371;28;20029;-72
2023/06/11 00:47:07;;;;;;;6.35;2.55;;;15.60;99.90;;;;;;5048026;28;20142;-72
2023/06/11 00:49:33;;;;;;;3.80;2.20;;;15.40;99.90;;;;;;5050205;28;20047;-73
2023/06/11 00:51:58;;;;;;;5.22;2.75;;;15.40;99.90;;;;;;5047780;28;20471;-73
2023/06/11 00:54:25;;;;;;;5.82;2.38;;;15.50;99.90;;;;;;5047980;28;20029;-73
2023/06/11 00:56:51;;;;;;;4.43;2.20;;;15.70;99.90;;;;;;5048771;28;20072;-73
2023/06/11 00:59:17;;;;;;;3.83;2.40;;;15.50;99.90;;;;;;5052025;28;20507;-72
2023/06/11 01:01:59;;;;;;;4.82;2.30;;;15.60;99.90;;;;;;5048420;28;20037;-73
2023/06/11 01:04:29;;;;;;;5.55;2.83;;;15.50;99.90;;;;;;5055751;28;20487;-73
2023/06/11 01:06:59;;;;;;;4.40;2.20;;;15.60;99.90;;;;;;5049291;28;20028;-72
2023/06/11 01:09:27;;;;;;;4.35;2.50;;;15.60;99.90;;;;;;5052309;28;20033;-73
2023/06/11 01:11:55;;;;;;;4.57;3.17;;;15.70;99.90;;;;;;5048445;28;20482;-72
2023/06/11 01:14:21;;;;;;;5.90;2.72;;;15.90;99.90;;;;;;5048481;28;20021;-72
2023/06/11 01:17:02;;;;;;;4.35;2.28;;;15.90;99.90;;;;;;5048686;28;20074;-72
2023/06/11 01:20:10;;;;;;;6.28;2.65;;;15.80;99.90;;;;;;5051204;28;20036;-73
2023/06/11 01:22:38;;;;;;;5.63;2.95;;;15.40;99.90;;;;;;5052655;28;20033;-72
2023/06/11 01:25:30;;;;;;;3.92;2.55;;;15.30;99.90;;;;;;5056330;28;20096;-72
2023/06/11 01:28:12;;;;;;;4.35;2.38;;;15.30;99.90;;;;;;5047146;28;20029;-72
2023/06/11 01:30:41;;;;;;;6.05;2.63;;;15.40;99.90;;;;;;5048121;28;20036;-72
2023/06/11 01:33:08;;;;;;;3.85;2.35;;;15.30;99.90;;;;;;5049498;28;20055;-72
2023/06/11 01:35:35;;;;;;;3.83;1.92;;;15.40;99.90;;;;;;5047401;28;20028;-72
2023/06/11 01:38:02;;;;;;;5.13;2.28;;;15.50;99.90;;;;;;5048532;28;20033;-73
2023/06/11 01:40:28;;;;;;;4.82;2.70;;;15.50;99.90;;;;;;5048380;28;20463;-72
2023/06/11 01:42:55;;;;;;;5.25;2.40;;;15.40;99.90;;;;;;5055390;28;20024;-72
2023/06/11 01:45:22;;;;;;;5.05;2.35;;;15.30;99.90;;;;;;5055900;28;20175;-73
2023/06/11 01:47:49;;;;;;;4.75;2.47;;;15.30;99.90;;;;;;5054116;28;20502;-72
2023/06/11 01:50:18;;;;;;;4.75;2.65;;;15.30;99.90;;;;;;5047184;28;20100;-73
2023/06/11 01:52:45;;;;;;;5.05;2.50;;;15.30;99.90;;;;;;5047276;28;20391;-72
2023/06/11 01:55:11;;;;;;;5.55;2.90;;;15.10;99.90;;;;;;5048536;28;20116;-73
2023/06/11 01:57:37;;;;;;;4.68;2.58;;;15.10;99.90;;;;;;5046508;28;20199;-72
2023/06/11 02:00:15;;;;;;;5.05;2.78;;;15.20;99.90;;;;;;5049674;28;20017;-72
2023/06/11 02:02:43;;;;;;;4.75;2.63;;;15.10;99.90;;;;;;5050342;28;20025;-72
2023/06/11 02:05:09;;;;;;;4.75;2.75;;;15.20;99.90;;;;;;5063539;28;20044;-73
2023/06/11 02:07:35;;;;;;;4.47;2.47;;;15.10;99.90;;;;;;5054455;28;20037;-72
2023/06/11 02:10:01;;;;;;;5.30;2.50;;;15.20;99.90;;;;;;5050554;28;20112;-72
2023/06/11 02:12:26;;;;;;;5.13;2.50;;;15.20;99.90;;;;;;5062315;28;20120;-73
2023/06/11 02:14:52;;;;;;;5.72;2.65;;;15.10;99.90;;;;;;5052184;28;20092;-72
2023/06/11 02:17:18;;;;;;;5.35;2.88;;;15.00;99.90;;;;;;5050801;28;20047;-72
2023/06/11 02:19:43;;;;;;;5.00;2.28;;;15.00;99.90;;;;;;5053428;28;20174;-72
2023/06/11 02:22:09;;;;;;;4.78;2.67;;;15.00;99.90;;;;;;5051933;28;20044;-72
2023/06/11 02:24:35;;;;;;;4.53;2.60;;;15.00;99.90;;;;;;5051747;28;20116;-72
2023/06/11 02:27:00;;;;;;;4.82;2.65;;;15.00;99.90;;;;;;5057431;28;20036;-72
2023/06/11 02:29:26;;;;;;;6.05;3.15;;;15.20;99.90;;;;;;5049928;28;20497;-72
2023/06/11 02:31:51;;;;;;;4.43;3.00;;;15.00;99.90;;;;;;5053347;28;20117;-72
2023/06/11 02:34:17;;;;;;;6.03;3.15;;;15.10;99.90;;;;;;5063449;28;20386;-72
2023/06/11 02:36:43;;;;;;;5.07;2.85;;;15.10;99.90;;;;;;5051882;28;20550;-72
2023/06/11 02:39:08;;;;;;;5.90;2.65;;;15.10;99.90;;;;;;5050051;28;20447;-72
2023/06/11 02:41:34;;;;;;;4.72;2.40;;;15.00;99.90;;;;;;5052847;28;20021;-72
2023/06/11 02:44:00;;;;;;;4.55;2.90;;;14.90;99.90;;;;;;5050689;28;20039;-72
2023/06/11 02:46:25;;;;;;;8.18;3.13;;;14.90;99.90;;;;;;5050225;28;20035;-73
2023/06/11 02:48:51;;;;;;;4.80;2.85;;;14.90;99.90;;;;;;5065694;28;20554;-72
2023/06/11 02:51:17;;;;;;;7.40;3.83;;;14.90;99.90;;;;;;5051614;28;20505;-72
2023/06/11 02:53:44;;;;;;;6.70;3.47;;;15.10;99.90;;;;;;5064805;28;20033;-73
2023/06/11 02:56:09;;;;;;;7.95;2.70;;;15.20;99.90;;;;;;5056301;28;20056;-72
2023/06/11 02:58:35;;;;;;;8.07;2.92;;;15.10;99.90;;;;;;5052200;28;20084;-73
2023/06/11 03:01:01;;;;;;;4.20;2.35;;;15.20;99.90;;;;;;5058000;28;20426;-74
2023/06/11 03:03:26;;;;;;;5.43;2.65;;;15.20;99.90;;;;;;5051241;28;20543;-74
2023/06/11 03:05:52;;;;;;;5.38;3.30;;;15.20;99.90;;;;;;5047687;28;20364;-74
2023/06/11 03:08:18;;;;;;;5.78;2.33;;;15.30;99.90;;;;;;5056709;28;20851;-74
2023/06/11 03:10:43;;;;;;;6.13;2.92;;;15.10;99.90;;;;;;5055417;28;20060;-74
2023/06/11 03:13:09;;;;;;;5.10;2.90;;;15.40;99.90;;;;;;5054548;28;20064;-74
2023/06/11 03:15:35;;;;;;;4.93;2.90;;;15.30;99.90;;;;;;5048741;28;20033;-74
2023/06/11 03:18:01;;;;;;;7.35;3.10;;;15.20;99.90;;;;;;5044740;28;20064;-73
2023/06/11 03:20:27;;;;;;;6.85;3.10;;;15.10;99.90;;;;;;5054235;28;20509;-74
2023/06/11 03:22:53;;;;;;;7.43;3.05;;;15.20;99.90;;;;;;5052347;28;20057;-74
2023/06/11 03:25:18;;;;;;;6.15;3.00;;;15.30;99.90;;;;;;5043344;28;20021;-74
2023/06/11 03:27:44;;;;;;;6.45;3.75;;;15.40;99.90;;;;;;5050643;28;20116;-74
2023/06/11 03:30:11;;;;;;;4.63;2.53;;;15.40;99.90;;;;;;5051796;28;20029;-74
2023/06/11 03:32:38;;;;;;;4.95;2.83;;;15.40;99.90;;;;;;5056324;28;20112;-74
2023/06/11 03:35:04;;;;;;;5.60;2.55;;;15.40;99.90;;;;;;5049402;28;20503;-74
2023/06/11 03:37:29;;;;;;;7.45;2.47;;;15.20;99.90;;;;;;5061769;28;20123;-74
2023/06/11 03:39:55;;;;;;;5.15;3.03;;;15.20;99.90;;;;;;5046708;28;20033;-74
2023/06/11 03:42:21;;;;;;;7.10;2.95;;;15.20;99.90;;;;;;5052007;28;20434;-74
2023/06/11 03:44:46;;;;;;;5.55;2.58;;;15.20;99.90;;;;;;5053537;28;20063;-74
2023/06/11 03:47:12;;;;;;;4.82;2.70;;;15.10;99.90;;;;;;5042109;28;20091;-74
2023/06/11 03:49:37;;;;;;;5.25;3.28;;;14.90;99.90;;;;;;5051198;28;20470;-74
2023/06/11 03:52:03;;;;;;;5.05;3.10;;;14.90;99.90;;;;;;5055742;28;20115;-73
2023/06/11 03:54:29;;;;;;;5.93;3.58;;;14.80;99.90;;;;;;5044635;28;20020;-74
2023/06/11 03:56:54;;;;;;;6.60;3.20;;;15.10;99.90;;;;;;5053047;28;20036;-74
2023/06/11 03:59:20;;;;;;;5.95;2.85;;;15.20;99.90;;;;;;5048237;28;20049;-74
2023/06/11 04:01:46;;;;;;;4.75;2.85;;;15.30;99.90;;;;;;5048511;28;20593;-74
2023/06/11 04:04:11;;;;;;;4.45;2.58;;;15.20;99.90;;;;;;5046417;28;20039;-74
2023/06/11 04:06:38;;;;;;;6.82;2.50;;;15.20;99.90;;;;;;5049436;28;20032;-74
2023/06/11 04:09:05;;;;;;;6.05;2.92;;;15.10;99.90;;;;;;5044298;28;20395;-74
2023/06/11 04:11:30;;;;;;;6.65;2.95;;;15.10;99.90;;;;;;5049777;28;20029;-74
2023/06/11 04:13:56;;;;;;;4.78;2.35;;;14.80;99.90;;;;;;5054110;28;21042;-74
2023/06/11 04:16:22;;;;;;;6.05;2.60;;;14.90;99.90;;;;;;5051511;28;20032;-74
2023/06/11 04:18:47;;;;;;;5.50;2.85;;;14.90;99.90;;;;;;5045449;28;20116;-74
2023/06/11 04:21:14;;;;;;;5.10;2.67;;;14.90;99.90;;;;;;5047321;28;20040;-73
2023/06/11 04:23:40;;;;;;;4.88;2.88;;;15.00;99.90;;;;;;5046387;28;20029;-74
2023/06/11 04:26:07;;;;;;;6.07;3.50;;;15.20;99.90;;;;;;5042981;28;20036;-73
2023/06/11 04:28:35;;;;;;;6.20;3.28;;;15.50;99.90;;;;;;5045147;28;20499;-73
2023/06/11 04:31:01;;;;;;;4.68;2.75;;;15.70;99.90;;;;;;5049820;28;20025;-73
2023/06/11 04:33:32;;;;;;;4.75;2.80;;;15.60;99.90;;;;;;5060378;28;20554;-73
2023/06/11 04:36:04;;;;;;;6.00;2.97;;;15.60;99.90;;;;;;5053587;28;20132;-73
2023/06/11 04:38:30;;;;;;;7.93;3.00;;;15.50;99.90;;;;;;5046220;28;20045;-73
2023/06/11 04:40:57;;;;;;;4.93;2.83;;;15.40;99.90;;;;;;5046982;28;20120;-73
2023/06/11 04:43:23;;;;;;;4.60;2.78;;;15.50;99.90;;;;;;5050431;28;20025;-73
2023/06/11 04:45:55;;;;;;;5.70;2.85;;;15.40;99.90;;;;;;5056253;28;20025;-73
2023/06/11 04:48:27;;;;;;;4.68;2.38;;;15.30;99.90;;;;;;5054179;28;20021;-73
2023/06/11 04:50:54;;;;;;;5.13;2.90;;;15.20;99.90;;;;;;5053077;28;20060;-73
2023/06/11 04:53:24;;;;;;;4.45;2.40;;;15.10;99.90;;;;;;5046838;28;20040;-73
2023/06/11 04:55:51;;;;;;;4.70;2.25;;;15.10;99.90;;;;;;5041790;28;20410;-73
2023/06/11 04:58:20;;;;;;;4.25;2.72;;;15.10;99.90;;;;;;5046010;28;20091;-73
2023/06/11 05:00:46;;;;;;;4.82;2.58;;;15.10;99.90;;;;;;5058050;28;20029;-73
2023/06/11 05:03:12;;;;;;;4.18;2.47;;;15.30;99.90;;;;;;5054181;28;20047;-73
2023/06/11 05:05:38;;;;;;;6.25;2.75;;;15.40;99.90;;;;;;5044109;28;20040;-73
2023/06/11 05:08:04;;;;;;;5.45;2.67;;;15.60;99.90;;;;;;5043757;28;20036;-73
2023/06/11 05:10:30;;;;;;;4.70;2.47;;;15.60;99.90;;;;;;5040244;28;20379;-74
2023/06/11 05:12:55;;;;;;;5.82;2.83;;;15.70;99.90;;;;;;5043297;28;20078;-73
2023/06/11 05:15:21;;;;;;;7.18;3.05;;;15.70;99.90;;;;;;5053390;28;20510;-73
2023/06/11 05:17:47;;;;;;;4.95;2.60;;;15.70;99.90;;;;;;5054937;28;20090;-73
2023/06/11 05:20:13;;;;;;;4.90;2.63;;;15.60;99.90;;;;;;5057668;28;20074;-73
2023/06/11 05:22:39;;;;;;;4.55;2.70;;;15.50;99.90;;;;;;5051958;28;20037;-73
2023/06/11 05:25:05;;;;;;;4.47;2.17;;;15.40;99.90;;;;;;5051240;28;20120;-73
2023/06/11 05:27:31;;;;;;;4.80;2.10;;;15.40;99.90;;;;;;5046409;28;20112;-74
2023/06/11 05:29:57;;;;;;;4.53;2.25;;;15.40;99.90;;;;;;5049396;28;20071;-73
2023/06/11 05:32:23;;;;;;;4.97;2.47;;;15.40;99.90;;;;;;5052062;28;20092;-73
2023/06/11 05:34:51;;;;;;;5.43;2.70;;;15.50;99.90;;;;;;5064504;28;20041;-73
2023/06/11 05:37:17;;;;;;;4.72;2.33;;;15.60;99.90;;;;;;5055485;28;20061;-73
2023/06/11 05:39:43;;;;;;;4.82;3.15;;;15.60;99.90;;;;;;5047939;28;20126;-73
2023/06/11 05:42:08;;;;;;;4.45;2.42;;;15.80;99.90;;;;;;5051468;28;25671;-73
2023/06/11 05:44:34;;;;;;;4.68;2.67;;;15.90;99.90;;;;;;5054763;28;20025;-73
2023/06/11 05:47:00;;;;;;;5.25;3.00;;;16.10;99.90;;;;;;5056822;28;20025;-73
2023/06/11 05:49:26;;;;;;;4.53;3.00;;;16.30;99.90;;;;;;5055351;28;20124;-73
2023/06/11 05:51:52;;;;;;;5.50;2.53;;;16.40;99.90;;;;;;5050491;28;20140;-73
2023/06/11 05:54:18;;;;;;;4.47;2.65;;;16.50;99.90;;;;;;5059071;28;20503;-73
2023/06/11 05:56:44;;;;;;;7.97;2.65;;;16.50;99.90;;;;;;5046695;28;20017;-73
2023/06/11 05:59:09;;;;;;;4.30;2.60;;;16.50;99.90;;;;;;5047397;28;20225;-73
2023/06/11 06:01:36;;;;;;;5.32;2.85;;;16.60;99.90;;;;;;5053497;28;20028;-73
2023/06/11 06:04:03;;;;;;;6.22;2.80;;;16.70;99.90;;;;;;5058541;28;20355;-73
2023/06/11 06:06:30;;;;;;;5.07;3.13;;;16.70;99.90;;;;;;5061883;28;25617;-73
2023/06/11 06:08:55;;;;;;;6.22;2.92;;;16.70;99.90;;;;;;5048515;28;20402;-74
2023/06/11 06:11:21;;;;;;;4.93;3.47;;;16.80;99.90;;;;;;5065182;28;20032;-73
2023/06/11 06:13:47;;;;;;;6.63;3.63;;;16.80;99.90;;;;;;5049898;28;20033;-73
2023/06/11 06:16:13;;;;;;;5.88;3.33;;;16.90;99.90;;;;;;5052521;28;21050;-73
2023/06/11 06:18:39;;;;;;;8.52;3.25;;;17.00;99.90;;;;;;5046064;28;20479;-73
2023/06/11 06:21:05;;;;;;;7.60;3.55;;;17.00;99.90;;;;;;5051279;28;20041;-73
2023/06/11 06:23:31;;;;;;;5.78;3.42;;;17.00;99.90;;;;;;5051803;28;20083;-73
2023/06/11 06:25:57;;;;;;;5.35;3.55;;;17.00;99.90;;;;;;5047321;28;20037;-73
2023/06/11 06:28:22;;;;;;;6.25;3.97;;;17.10;99.90;;;;;;5050084;28;20628;-73
2023/06/11 06:30:49;;;;;;;4.80;3.17;;;17.10;99.90;;;;;;5053039;28;20039;-74
2023/06/11 06:33:15;;;;;;;5.60;3.67;;;17.20;99.90;;;;;;5044856;28;20036;-73
2023/06/11 06:35:41;;;;;;;7.00;4.28;;;17.20;99.90;;;;;;5047737;28;20120;-73
2023/06/11 06:38:06;;;;;;;7.15;3.75;;;17.30;99.90;;;;;;5049316;28;20037;-74
2023/06/11 06:40:32;;;;;;;8.10;4.15;;;17.30;99.90;;;;;;5047015;28;20032;-74
2023/06/11 06:42:58;;;;;;;5.40;3.60;;;17.40;99.90;;;;;;5052413;28;20028;-73
2023/06/11 06:45:24;;;;;;;6.18;3.90;;;17.40;99.90;;;;;;5046323;28;20032;-74
2023/06/11 06:47:50;;;;;;;5.43;3.35;;;17.50;99.90;;;;;;5049221;28;20029;-73
2023/06/11 06:50:15;;;;;;;6.32;3.80;;;17.50;99.90;;;;;;5051346;28;20028;-76
2023/06/11 06:52:41;;;;;;;7.13;3.55;;;17.60;99.90;;;;;;5049446;28;20040;-74
2023/06/11 06:55:07;;;;;;;5.38;3.08;;;17.70;99.90;;;;;;5051010;28;20040;-74
2023/06/11 06:57:33;;;;;;;5.28;3.65;;;17.70;99.90;;;;;;5049121;28;20067;-73
2023/06/11 06:59:58;;;;;;;5.50;3.30;;;17.90;99.90;;;;;;5048252;28;20032;-74
2023/06/11 07:02:24;;;;;;;6.07;3.67;;;18.10;99.90;;;;;;5044663;28;20458;-74
2023/06/11 07:04:51;;;;;;;5.72;3.50;;;18.30;99.90;;;;;;5045674;28;20025;-74
2023/06/11 07:07:16;;;;;;;6.03;3.58;;;18.70;99.90;;;;;;5045424;28;20024;-73
2023/06/11 07:09:43;;;;;;;8.93;4.22;;;18.90;99.90;;;;;;5046592;28;20052;-73
2023/06/11 07:12:10;;;;;;;4.82;3.38;;;19.10;99.90;;;;;;5046575;28;20499;-74
2023/06/11 07:14:35;;;;;;;7.22;3.88;;;19.40;99.90;;;;;;5049577;28;20028;-74
2023/06/11 07:17:01;;;;;;;8.88;4.00;;;19.80;99.90;;;;;;5051015;28;20025;-74
2023/06/11 07:19:27;;;;;;;5.47;3.72;;;19.90;99.90;;;;;;5047700;28;20024;-74
2023/06/11 07:21:52;;;;;;;5.65;3.80;;;20.10;99.90;;;;;;5048150;28;20036;-74
2023/06/11 07:24:18;;;;;;;9.45;3.80;;;20.30;99.90;;;;;;5046727;28;20120;-74
2023/06/11 07:26:43;;;;;;;6.95;3.17;;;20.40;99.90;;;;;;5048044;28;20111;-74
2023/06/11 07:29:09;;;;;;;6.63;3.53;;;20.80;99.90;;;;;;5047321;28;20033;-74
2023/06/11 07:31:35;;;;;;;5.40;3.05;;;21.60;99.90;;;;;;5049754;28;20179;-74
2023/06/11 07:34:00;;;;;;;5.75;3.33;;;22.50;99.90;;;;;;5042439;28;20032;-74
2023/06/11 07:36:26;;;;;;;6.15;3.53;;;23.10;99.90;;;;;;5047442;28;20060;-74
2023/06/11 07:38:51;;;;;;;4.75;3.03;;;24.00;99.90;;;;;;5053349;28;20076;-73
2023/06/11 07:41:17;;;;;;;4.40;2.92;;;24.90;99.30;;;;;;5047912;28;20149;-74
2023/06/11 07:43:43;;;;;;;5.82;3.03;;;24.40;98.60;;;;;;5046995;28;20102;-74
2023/06/11 07:46:09;;;;;;;4.85;2.70;;;24.10;99.00;;;;;;5055335;28;20020;-74
2023/06/11 07:48:35;;;;;;;5.57;2.95;;;23.80;99.60;;;;;;5047652;28;20043;-74
2023/06/11 07:51:01;;;;;;;6.55;3.72;;;23.70;99.40;;;;;;5043042;28;20027;-74
2023/06/11 07:53:26;;;;;;;5.57;3.35;;;23.90;99.90;;;;;;5054413;28;20024;-74
2023/06/11 07:55:56;;;;;;;6.78;3.20;;;23.80;99.90;;;;;;5054419;28;20039;-75
2023/06/11 07:58:23;;;;;;;6.40;3.30;;;23.00;99.90;;;;;;5048327;28;20037;-73
2023/06/11 08:00:48;;;;;;;4.70;2.90;;;22.80;99.90;;;;;;5060893;28;20647;-73
2023/06/11 08:03:16;;;;;;;7.28;3.53;;;22.10;99.90;;;;;;5060745;28;20029;-73
2023/06/11 08:05:41;;;;;;;5.60;3.60;;;22.30;99.90;;;;;;5064813;28;20028;-73
2023/06/11 08:08:07;;;;;;;4.68;2.92;;;22.00;99.90;;;;;;5061133;28;20039;-74
2023/06/11 08:10:33;;;;;;;5.00;2.67;;;22.10;99.90;;;;;;5057647;28;20100;-73
2023/06/11 08:12:59;;;;;;;4.93;3.15;;;22.30;99.90;;;;;;5059490;28;20090;-74
2023/06/11 08:15:25;;;;;;;4.03;2.67;;;22.30;99.90;;;;;;5059014;28;20490;-73
2023/06/11 08:17:50;;;;;;;3.80;2.67;;;22.60;99.90;;;;;;5059706;28;20135;-74
2023/06/11 08:20:16;;;;;;;5.88;3.28;;;22.70;99.90;;;;;;5059345;28;20081;-74
2023/06/11 08:22:42;;;;;;;5.85;3.67;;;22.70;99.90;;;;;;5061450;28;20115;-73
2023/06/11 08:25:09;;;;;;;5.07;3.58;;;22.40;99.90;;;;;;5058638;28;20078;-73
2023/06/11 08:27:35;;;;;;;6.63;3.50;;;22.40;99.90;;;;;;5057822;28;20036;-73
2023/06/11 08:30:02;;;;;;;8.15;3.28;;;22.40;99.90;;;;;;5060523;28;20521;-74
2023/06/11 08:32:28;;;;;;;5.97;3.42;;;22.50;99.90;;;;;;5059685;28;20043;-73
2023/06/11 08:34:53;;;;;;;7.93;3.38;;;22.90;99.90;;;;;;5060272;28;20519;-73
2023/06/11 08:37:19;;;;;;;5.43;3.15;;;23.10;99.90;;;;;;5058675;28;20050;-74
2023/06/11 08:39:45;;;;;;;5.10;3.42;;;22.50;99.90;;;;;;5059561;28;20020;-73
2023/06/11 08:42:11;;;;;;;5.03;3.50;;;22.90;99.90;;;;;;5059567;28;20063;-74
2023/06/11 08:44:37;;;;;;;5.15;3.17;;;23.10;99.90;;;;;;5059518;28;20135;-74
2023/06/11 08:47:06;;;;;;;5.15;3.65;;;23.10;99.90;;;;;;5059227;28;20029;-74
2023/06/11 08:49:33;;;;;;;5.88;3.05;;;23.20;99.90;;;;;;5047966;28;20032;-74
2023/06/11 08:52:02;;;;;;;8.05;3.53;;;23.30;99.90;;;;;;5058459;28;20124;-74
2023/06/11 08:54:28;;;;;;;4.40;2.80;;;23.30;99.90;;;;;;5058945;28;20028;-74
2023/06/11 08:56:54;;;;;;;8.00;3.83;;;23.50;99.90;;;;;;5056881;28;20043;-74
2023/06/11 08:59:20;;;;;;;8.07;3.92;;;23.50;99.90;;;;;;5054318;28;20052;-74
2023/06/11 09:01:51;;;;;;;4.40;3.47;;;23.50;99.90;;;;;;5054944;28;20029;-74
2023/06/11 09:04:17;;;;;;;5.10;3.30;;;23.70;99.90;;;;;;5051374;28;20426;-74
2023/06/11 09:06:57;;;;;;;5.68;4.00;;;24.10;99.90;;;;;;5053578;28;20579;-74
2023/06/11 09:09:22;;;;;;;5.25;3.40;;;24.20;99.90;;;;;;5051973;28;20111;-73
2023/06/11 09:11:48;;;;;;;7.32;3.33;;;24.10;99.90;;;;;;5052200;28;20029;-74
2023/06/11 09:14:14;;;;;;;4.30;2.97;;;24.20;99.90;;;;;;5051374;28;20029;-74
2023/06/11 09:16:42;;;;;;;7.45;3.08;;;24.10;99.60;;;;;;5050772;28;20025;-74
2023/06/11 09:19:18;;;;;;;7.90;3.17;;;24.10;99.90;;;;;;5050533;28;20047;-74
2023/06/11 09:21:55;;;;;;;5.22;4.05;;;24.30;99.90;;;;;;5054029;28;20029;-73
2023/06/11 09:24:21;;;;;;;4.82;3.00;;;24.20;99.90;;;;;;5055440;28;20038;-73
2023/06/11 09:26:55;;;;;;;5.63;3.65;;;24.30;99.80;;;;;;5058146;28;20046;-73
2023/06/11 09:29:25;;;;;;;4.88;3.25;;;24.60;99.80;;;;;;5062564;28;20051;-73
2023/06/11 09:32:05;;;;;;;4.65;3.17;;;24.20;99.70;;;;;;5072770;28;21156;-73
2023/06/11 09:34:31;;;;;;;5.65;2.97;;;24.50;99.90;;;;;;5060557;28;20657;-73
2023/06/11 09:36:56;;;;;;;5.13;2.95;;;24.60;99.00;;;;;;5055932;28;20028;-73
2023/06/11 09:39:22;;;;;;;11.70;3.33;;;24.70;98.70;;;;;;5056524;28;20904;-73
2023/06/11 09:41:50;;;;;;;5.40;3.40;;;24.90;99.50;;;;;;5056947;28;20032;-73
2023/06/11 09:44:19;;;;;;;6.30;3.33;;;24.70;99.20;;;;;;5058191;28;20031;-74
2023/06/11 09:46:48;;;;;;;8.07;4.05;;;24.90;99.20;;;;;;5058196;28;20036;-73
2023/06/11 09:49:16;;;;;;;5.88;3.53;;;25.30;98.90;;;;;;5058051;28;20051;-73
2023/06/11 09:51:43;;;;;;;6.45;3.03;;;25.80;98.30;;;;;;5056069;28;20044;-73
2023/06/11 09:54:09;;;;;;;4.78;3.15;;;25.20;97.70;;;;;;5058301;28;20600;-73
2023/06/11 09:56:37;;;;;;;5.47;3.15;;;24.70;98.30;;;;;;5055629;28;20036;-74
2023/06/11 09:59:03;;;;;;;5.18;3.17;;;24.90;97.90;;;;;;5056375;28;20055;-73
2023/06/11 10:01:29;;;;;;;6.55;3.95;;;24.70;98.00;;;;;;5057258;28;20028;-73
2023/06/11 10:03:59;;;;;;;4.68;3.33;;;25.10;98.70;;;;;;5053933;28;20139;-73
2023/06/11 10:06:30;;;;;;;6.60;3.47;;;25.70;98.90;;;;;;5057154;28;20624;-73
2023/06/11 10:08:59;;;;;;;4.70;3.33;;;26.30;98.40;;;;;;5058394;28;20137;-74
2023/06/11 10:11:25;;;;;;;6.05;3.70;;;26.60;97.60;;;;;;5056969;28;20029;-73
2023/06/11 10:14:01;;;;;;;6.25;3.60;;;25.70;98.20;;;;;;5058868;28;20021;-73
2023/06/11 10:16:27;;;;;;;5.03;3.10;;;25.60;98.80;;;;;;5057300;28;20514;-73
2023/06/11 10:19:09;;;;;;;5.03;3.58;;;25.80;99.50;;;;;;5056417;28;20045;-73
2023/06/11 10:21:44;;;;;;;5.78;3.47;;;26.10;99.30;;;;;;5056354;28;20763;-74
2023/06/11 10:24:28;;;;;;;4.47;3.17;;;26.70;99.00;;;;;;5056254;28;21022;-74
2023/06/11 10:27:07;;;;;;;6.20;3.47;;;26.90;98.60;;;;;;5058054;28;20566;-74
2023/06/11 10:29:41;;;;;;;5.40;3.50;;;27.30;98.30;;;;;;5058583;28;20090;-74
2023/06/11 10:32:17;;;;;;;5.55;2.88;;;26.50;97.50;;;;;;5055303;28;20028;-74
2023/06/11 10:34:44;;;;;;;21.20;3.45;;;26.40;99.00;;;;;;5057965;28;20051;-74
2023/06/11 10:37:11;;;;;;;6.38;4.00;;;26.10;99.00;;;;;;5057545;28;20036;-74
2023/06/11 10:39:49;;;;;;;5.40;3.50;;;25.60;98.20;;;;;;5056320;28;20155;-73
2023/06/11 10:42:22;;;;;;;4.45;2.85;;;25.50;98.30;;;;;;5057905;28;20107;-74
2023/06/11 10:44:48;;;;;;;4.72;3.03;;;25.30;98.00;;;;;;5056895;28;20028;-74
2023/06/11 10:47:14;;;;;;;4.68;3.00;;;25.50;97.90;;;;;;5054556;28;20043;-74
2023/06/11 10:49:40;;;;;;;4.43;2.67;;;26.00;97.50;;;;;;5056329;28;20048;-73
2023/06/11 10:52:06;;;;;;;3.63;2.47;;;25.90;98.00;;;;;;5057122;28;20033;-74
2023/06/11 10:54:33;;;;;;;3.90;2.78;;;25.70;97.10;;;;;;5057373;28;20040;-74
2023/06/11 10:57:03;;;;;;;5.07;3.20;;;25.40;97.80;;;;;;5057379;28;20524;-74
2023/06/11 10:59:30;;;;;;;3.88;2.42;;;25.60;97.30;;;;;;5055568;28;20067;-74
2023/06/11 11:01:56;;;;;;;5.38;2.95;;;25.60;96.80;;;;;;5058556;28;20030;-74
2023/06/11 11:04:22;;;;;;;5.38;2.78;;;25.60;97.50;;;;;;5056638;28;20040;-74
2023/06/11 11:06:48;;;;;;;4.30;3.05;;;25.40;97.60;;;;;;5056548;28;20037;-74
2023/06/11 11:09:22;;;;;;;5.13;2.80;;;25.50;97.70;;;;;;5055535;28;20037;-74
2023/06/11 11:11:49;;;;;;;4.03;2.63;;;25.50;97.90;;;;;;5057960;28;20025;-74
2023/06/11 11:14:17;;;;;;;5.07;2.78;;;25.60;97.70;;;;;;5056723;28;20034;-73
2023/06/11 11:16:46;;;;;;;6.75;2.50;;;25.80;98.20;;;;;;5054621;28;20040;-74
2023/06/11 11:19:12;;;;;;;4.15;2.45;;;25.90;96.60;;;;;;5059020;28;20040;-74
2023/06/11 11:21:37;;;;;;;4.13;2.80;;;26.10;96.80;;;;;;5055584;28;20036;-74
2023/06/11 11:24:12;;;;;;;5.43;2.92;;;26.00;97.20;;;;;;5055217;28;20103;-74
2023/06/11 11:26:42;;;;;;;4.93;3.15;;;26.20;96.90;;;;;;5053519;28;20063;-73
2023/06/11 11:29:07;;;;;;;4.20;2.72;;;26.20;96.00;;;;;;5057169;28;20102;-73
2023/06/11 11:31:35;;;;;;;3.97;2.42;;;26.60;96.20;;;;;;5054536;28;20060;-74
2023/06/11 11:34:01;;;;;;;7.18;5.00;;;27.00;97.00;;;;;;5056706;28;20034;-74
2023/06/11 11:36:27;;;;;;;24.08;21.48;;;27.20;95.80;;;;;;5056185;28;20035;-74
2023/06/11 11:38:53;;;;;;;6.97;5.07;;;27.00;96.60;;;;;;5055387;28;20398;-74
2023/06/11 11:41:22;;;;;;;4.28;2.90;;;27.10;96.40;;;;;;5056485;28;20024;-74
2023/06/11 11:43:49;;;;;;;4.15;2.53;;;27.50;95.40;;;;;;5054925;28;20158;-74
2023/06/11 11:46:19;;;;;;;5.88;2.78;;;27.50;94.60;;;;;;5053427;28;20036;-74
2023/06/11 11:48:45;;;;;;;6.28;2.67;;;27.60;94.90;;;;;;5056495;28;20021;-74
2023/06/11 11:51:13;;;;;;;4.80;3.08;;;27.50;95.20;;;;;;5055828;28;20096;-74
2023/06/11 11:53:40;;;;;;;10.20;7.32;;;27.10;95.90;;;;;;5056068;28;20490;-74
2023/06/11 11:56:06;;;;;;;8.00;3.72;;;26.90;95.00;;;;;;5056755;28;20032;-74
2023/06/11 11:58:39;;;;;;;6.82;5.50;;;26.50;96.60;;;;;;5055979;28;20418;-74
2023/06/11 12:01:09;;;;;;;5.32;3.53;;;26.30;98.10;;;;;;5053287;28;20387;-74
2023/06/11 12:03:36;;;;;;;9.63;3.95;;;25.40;99.90;;;;;;5054409;28;20028;-74
2023/06/11 12:06:07;;;;;;;7.47;3.67;;;25.00;99.90;;;;;;5058672;28;20033;-74
2023/06/11 12:08:36;;;;;;;6.22;2.67;;;24.80;99.90;;;;;;5055223;28;20054;-74
2023/06/11 12:11:06;;;;;;;5.60;2.70;;;24.90;99.90;;;;;;5053776;28;20098;-73
2023/06/11 12:13:32;;;;;;;5.95;3.00;;;25.10;99.90;;;;;;5056456;28;20079;-74
2023/06/11 12:15:58;;;;;;;5.80;2.70;;;25.40;99.90;;;;;;5055397;28;20033;-74
2023/06/11 12:18:24;;;;;;;4.05;2.25;;;25.60;99.90;;;;;;5055486;28;20153;-73
2023/06/11 12:20:51;;;;;;;4.43;2.30;;;25.40;99.90;;;;;;5057648;28;20135;-74
2023/06/11 12:23:16;;;;;;;5.35;2.13;;;25.70;99.90;;;;;;5054734;28;20036;-74
2023/06/11 12:25:42;;;;;;;4.90;2.15;;;26.20;99.90;;;;;;5056719;28;20058;-74
2023/06/11 12:28:08;;;;;;;2.80;1.58;;;26.70;99.90;;;;;;5055078;28;20032;-74
2023/06/11 12:30:34;;;;;;;4.65;2.28;;;26.90;99.10;;;;;;5056726;28;20029;-74
2023/06/11 12:33:00;;;;;;;3.63;1.88;;;26.90;97.90;;;;;;5055265;28;20068;-74
2023/06/11 12:35:28;;;;;;;3.53;2.03;;;27.00;96.70;;;;;;5057438;28;20046;-74
2023/06/11 12:37:54;;;;;;;4.90;2.08;;;27.20;96.90;;;;;;5054667;28;20044;-74
2023/06/11 12:40:20;;;;;;;5.43;1.58;;;27.20;96.40;;;;;;5055174;28;20065;-74
2023/06/11 12:42:45;;;;;;;3.10;1.63;;;27.00;95.40;;;;;;5055674;28;20124;-74
2023/06/11 12:45:11;;;;;;;5.32;1.75;;;27.10;95.40;;;;;;5053363;28;20089;-74